sensor_id;sensor_type;location;lat;lon;timestamp;P1;durP1;ratioP1;P2;durP2;ratioP2
11771;SDS011;12556;55.748;13.194;2023-06-22T00:02:16;5.40;;;4.63;;
11771;SDS011;12556;55.748;13.194;2023-06-22T00:04:43;5.80;;;4.80;;
11771;SDS011;12556;55.748;13.194;2023-06-22T00:07:10;6.77;;;4.80;;
11771;SDS011;12556;55.748;13.194;2023-06-22T00:09:37;8.47;;;5.07;;
11771;SDS011;12556;55.748;13.194;2023-06-22T00:12:04;6.63;;;5.50;;
11771;SDS011;12556;55.748;13.194;2023-06-22T00:14:33;7.70;;;5.70;;
11771;SDS011;12556;55.748;13.194;2023-06-22T00:17:00;7.27;;;5.07;;
11771;SDS011;12556;55.748;13.194;2023-06-22T00:19:27;8.27;;;5.20;;
11771;SDS011;12556;55.748;13.194;2023-06-22T00:21:54;10.27;;;5.80;;
11771;SDS011;12556;55.748;13.194;2023-06-22T00:24:25;8.07;;;5.60;;
11771;SDS011;12556;55.748;13.194;2023-06-22T00:26:52;8.57;;;5.27;;
11771;SDS011;12556;55.748;13.194;2023-06-22T00:29:19;8.87;;;5.20;;
11771;SDS011;12556;55.748;13.194;2023-06-22T00:31:47;8.77;;;5.80;;
11771;SDS011;12556;55.748;13.194;2023-06-22T00:34:14;9.33;;;6.00;;
11771;SDS011;12556;55.748;13.194;2023-06-22T00:36:41;9.20;;;5.80;;
11771;SDS011;12556;55.748;13.194;2023-06-22T00:39:07;6.37;;;5.77;;
11771;SDS011;12556;55.748;13.194;2023-06-22T00:41:35;7.07;;;6.47;;
11771;SDS011;12556;55.748;13.194;2023-06-22T00:44:02;7.33;;;6.43;;
11771;SDS011;12556;55.748;13.194;2023-06-22T00:46:29;8.57;;;5.97;;
11771;SDS011;12556;55.748;13.194;2023-06-22T00:48:58;7.83;;;5.83;;
11771;SDS011;12556;55.748;13.194;2023-06-22T00:51:25;9.80;;;5.83;;
11771;SDS011;12556;55.748;13.194;2023-06-22T00:53:52;8.60;;;6.40;;
11771;SDS011;12556;55.748;13.194;2023-06-22T00:56:19;9.90;;;5.80;;
11771;SDS011;12556;55.748;13.194;2023-06-22T00:58:49;7.37;;;6.00;;
11771;SDS011;12556;55.748;13.194;2023-06-22T01:01:18;10.63;;;6.27;;
11771;SDS011;12556;55.748;13.194;2023-06-22T01:03:48;9.20;;;6.60;;
11771;SDS011;12556;55.748;13.194;2023-06-22T01:06:19;9.40;;;6.20;;
11771;SDS011;12556;55.748;13.194;2023-06-22T01:08:53;7.07;;;6.10;;
11771;SDS011;12556;55.748;13.194;2023-06-22T01:11:28;8.57;;;6.50;;
11771;SDS011;12556;55.748;13.194;2023-06-22T01:14:00;7.60;;;6.17;;
11771;SDS011;12556;55.748;13.194;2023-06-22T01:16:33;8.67;;;6.67;;
11771;SDS011;12556;55.748;13.194;2023-06-22T01:19:04;7.40;;;6.33;;
11771;SDS011;12556;55.748;13.194;2023-06-22T01:21:53;12.23;;;6.43;;
11771;SDS011;12556;55.748;13.194;2023-06-22T01:24:22;11.80;;;7.17;;
11771;SDS011;12556;55.748;13.194;2023-06-22T01:26:54;7.33;;;6.63;;
11771;SDS011;12556;55.748;13.194;2023-06-22T01:29:31;7.33;;;6.37;;
11771;SDS011;12556;55.748;13.194;2023-06-22T01:32:04;8.00;;;6.50;;
11771;SDS011;12556;55.748;13.194;2023-06-22T01:34:32;7.80;;;6.37;;
11771;SDS011;12556;55.748;13.194;2023-06-22T01:37:00;10.10;;;7.57;;
11771;SDS011;12556;55.748;13.194;2023-06-22T01:39:28;8.63;;;7.20;;
11771;SDS011;12556;55.748;13.194;2023-06-22T01:41:56;10.40;;;6.87;;
11771;SDS011;12556;55.748;13.194;2023-06-22T01:44:24;14.83;;;7.00;;
11771;SDS011;12556;55.748;13.194;2023-06-22T01:46:53;7.63;;;6.80;;
11771;SDS011;12556;55.748;13.194;2023-06-22T01:49:20;7.40;;;6.70;;
11771;SDS011;12556;55.748;13.194;2023-06-22T01:51:47;9.53;;;7.00;;
11771;SDS011;12556;55.748;13.194;2023-06-22T01:54:14;8.23;;;6.43;;
11771;SDS011;12556;55.748;13.194;2023-06-22T01:56:41;9.17;;;7.67;;
11771;SDS011;12556;55.748;13.194;2023-06-22T01:59:10;11.07;;;6.97;;
11771;SDS011;12556;55.748;13.194;2023-06-22T02:01:42;9.37;;;7.87;;
11771;SDS011;12556;55.748;13.194;2023-06-22T02:04:16;12.80;;;7.20;;
11771;SDS011;12556;55.748;13.194;2023-06-22T02:06:48;9.70;;;7.57;;
11771;SDS011;12556;55.748;13.194;2023-06-22T02:09:20;11.73;;;7.67;;
11771;SDS011;12556;55.748;13.194;2023-06-22T02:11:50;9.10;;;7.63;;
11771;SDS011;12556;55.748;13.194;2023-06-22T02:14:20;12.57;;;7.17;;
11771;SDS011;12556;55.748;13.194;2023-06-22T02:16:48;8.23;;;6.77;;
11771;SDS011;12556;55.748;13.194;2023-06-22T02:19:18;10.63;;;7.27;;
11771;SDS011;12556;55.748;13.194;2023-06-22T02:21:49;8.53;;;7.10;;
11771;SDS011;12556;55.748;13.194;2023-06-22T02:24:16;8.43;;;7.13;;
11771;SDS011;12556;55.748;13.194;2023-06-22T02:26:43;10.83;;;6.53;;
11771;SDS011;12556;55.748;13.194;2023-06-22T02:29:10;10.07;;;6.63;;
11771;SDS011;12556;55.748;13.194;2023-06-22T02:31:37;8.90;;;7.30;;
11771;SDS011;12556;55.748;13.194;2023-06-22T02:34:04;9.93;;;7.17;;
11771;SDS011;12556;55.748;13.194;2023-06-22T02:36:32;8.97;;;6.70;;
11771;SDS011;12556;55.748;13.194;2023-06-22T02:38:59;13.73;;;7.20;;
11771;SDS011;12556;55.748;13.194;2023-06-22T02:41:28;9.03;;;7.03;;
11771;SDS011;12556;55.748;13.194;2023-06-22T02:43:55;11.30;;;6.83;;
11771;SDS011;12556;55.748;13.194;2023-06-22T02:46:22;11.23;;;7.17;;
11771;SDS011;12556;55.748;13.194;2023-06-22T02:48:49;8.03;;;6.10;;
11771;SDS011;12556;55.748;13.194;2023-06-22T02:51:16;10.60;;;7.70;;
11771;SDS011;12556;55.748;13.194;2023-06-22T02:53:44;8.50;;;7.37;;
11771;SDS011;12556;55.748;13.194;2023-06-22T02:56:12;11.47;;;6.93;;
11771;SDS011;12556;55.748;13.194;2023-06-22T02:58:39;6.97;;;6.27;;
11771;SDS011;12556;55.748;13.194;2023-06-22T03:01:07;13.60;;;8.13;;
11771;SDS011;12556;55.748;13.194;2023-06-22T03:03:37;7.37;;;6.27;;
11771;SDS011;12556;55.748;13.194;2023-06-22T03:06:04;10.07;;;6.57;;
11771;SDS011;12556;55.748;13.194;2023-06-22T03:08:32;10.23;;;6.97;;
11771;SDS011;12556;55.748;13.194;2023-06-22T03:11:01;9.50;;;6.30;;
11771;SDS011;12556;55.748;13.194;2023-06-22T03:13:28;7.07;;;5.70;;
11771;SDS011;12556;55.748;13.194;2023-06-22T03:15:54;11.37;;;6.53;;
11771;SDS011;12556;55.748;13.194;2023-06-22T03:18:21;8.43;;;6.37;;
11771;SDS011;12556;55.748;13.194;2023-06-22T03:20:48;9.17;;;5.73;;
11771;SDS011;12556;55.748;13.194;2023-06-22T03:23:15;8.47;;;5.87;;
11771;SDS011;12556;55.748;13.194;2023-06-22T03:25:42;7.83;;;6.30;;
11771;SDS011;12556;55.748;13.194;2023-06-22T03:28:12;7.27;;;5.50;;
11771;SDS011;12556;55.748;13.194;2023-06-22T03:30:38;7.10;;;5.90;;
11771;SDS011;12556;55.748;13.194;2023-06-22T03:33:05;8.90;;;5.73;;
11771;SDS011;12556;55.748;13.194;2023-06-22T03:35:32;10.00;;;6.10;;
11771;SDS011;12556;55.748;13.194;2023-06-22T03:37:59;8.10;;;5.80;;
11771;SDS011;12556;55.748;13.194;2023-06-22T03:40:26;10.27;;;5.93;;
11771;SDS011;12556;55.748;13.194;2023-06-22T03:42:53;10.20;;;5.73;;
11771;SDS011;12556;55.748;13.194;2023-06-22T03:45:21;8.47;;;6.03;;
11771;SDS011;12556;55.748;13.194;2023-06-22T03:47:48;8.27;;;5.83;;
11771;SDS011;12556;55.748;13.194;2023-06-22T03:50:15;8.70;;;6.20;;
11771;SDS011;12556;55.748;13.194;2023-06-22T03:52:42;9.23;;;6.40;;
11771;SDS011;12556;55.748;13.194;2023-06-22T03:55:08;10.63;;;6.17;;
11771;SDS011;12556;55.748;13.194;2023-06-22T03:57:35;7.13;;;5.80;;
11771;SDS011;12556;55.748;13.194;2023-06-22T04:00:03;10.03;;;5.83;;
11771;SDS011;12556;55.748;13.194;2023-06-22T04:02:32;10.10;;;6.00;;
11771;SDS011;12556;55.748;13.194;2023-06-22T04:04:59;8.93;;;6.03;;
11771;SDS011;12556;55.748;13.194;2023-06-22T04:07:25;7.33;;;5.40;;
11771;SDS011;12556;55.748;13.194;2023-06-22T04:09:52;6.40;;;5.70;;
11771;SDS011;12556;55.748;13.194;2023-06-22T04:12:19;7.53;;;6.20;;
11771;SDS011;12556;55.748;13.194;2023-06-22T04:14:46;10.37;;;5.87;;
11771;SDS011;12556;55.748;13.194;2023-06-22T04:17:13;8.73;;;5.93;;
11771;SDS011;12556;55.748;13.194;2023-06-22T04:19:41;9.00;;;6.20;;
11771;SDS011;12556;55.748;13.194;2023-06-22T04:22:08;6.93;;;5.13;;
11771;SDS011;12556;55.748;13.194;2023-06-22T04:24:36;7.43;;;5.73;;
11771;SDS011;12556;55.748;13.194;2023-06-22T04:27:03;8.10;;;5.53;;
11771;SDS011;12556;55.748;13.194;2023-06-22T04:29:31;5.77;;;4.70;;
11771;SDS011;12556;55.748;13.194;2023-06-22T04:31:58;7.53;;;5.83;;
11771;SDS011;12556;55.748;13.194;2023-06-22T04:34:28;11.93;;;5.30;;
11771;SDS011;12556;55.748;13.194;2023-06-22T04:36:56;8.20;;;5.27;;
11771;SDS011;12556;55.748;13.194;2023-06-22T04:39:23;9.40;;;5.10;;
11771;SDS011;12556;55.748;13.194;2023-06-22T04:41:52;6.63;;;5.13;;
11771;SDS011;12556;55.748;13.194;2023-06-22T04:44:24;6.27;;;5.60;;
11771;SDS011;12556;55.748;13.194;2023-06-22T04:46:52;7.80;;;5.30;;
11771;SDS011;12556;55.748;13.194;2023-06-22T04:49:25;7.43;;;5.10;;
11771;SDS011;12556;55.748;13.194;2023-06-22T04:51:59;8.77;;;5.07;;
11771;SDS011;12556;55.748;13.194;2023-06-22T04:54:26;7.00;;;5.20;;
11771;SDS011;12556;55.748;13.194;2023-06-22T04:56:54;6.87;;;4.87;;
11771;SDS011;12556;55.748;13.194;2023-06-22T04:59:22;8.47;;;5.10;;
11771;SDS011;12556;55.748;13.194;2023-06-22T05:01:53;10.23;;;5.00;;
11771;SDS011;12556;55.748;13.194;2023-06-22T05:04:21;7.87;;;5.03;;
11771;SDS011;12556;55.748;13.194;2023-06-22T05:06:49;8.30;;;4.47;;
11771;SDS011;12556;55.748;13.194;2023-06-22T05:09:17;5.37;;;4.57;;
11771;SDS011;12556;55.748;13.194;2023-06-22T05:11:44;7.80;;;4.43;;
11771;SDS011;12556;55.748;13.194;2023-06-22T05:14:12;7.13;;;4.43;;
11771;SDS011;12556;55.748;13.194;2023-06-22T05:16:40;5.90;;;4.10;;
11771;SDS011;12556;55.748;13.194;2023-06-22T05:19:07;6.97;;;4.57;;
11771;SDS011;12556;55.748;13.194;2023-06-22T05:21:34;5.53;;;4.40;;
11771;SDS011;12556;55.748;13.194;2023-06-22T05:24:02;11.17;;;4.93;;
11771;SDS011;12556;55.748;13.194;2023-06-22T05:26:31;5.63;;;4.43;;
11771;SDS011;12556;55.748;13.194;2023-06-22T05:28:59;6.07;;;4.27;;
11771;SDS011;12556;55.748;13.194;2023-06-22T05:31:27;7.83;;;4.80;;
11771;SDS011;12556;55.748;13.194;2023-06-22T05:33:55;7.63;;;5.00;;
11771;SDS011;12556;55.748;13.194;2023-06-22T05:36:22;8.73;;;4.33;;
11771;SDS011;12556;55.748;13.194;2023-06-22T05:38:50;5.73;;;4.43;;
11771;SDS011;12556;55.748;13.194;2023-06-22T05:41:18;7.33;;;4.70;;
11771;SDS011;12556;55.748;13.194;2023-06-22T05:43:46;9.70;;;4.17;;
11771;SDS011;12556;55.748;13.194;2023-06-22T05:46:13;5.83;;;4.10;;
11771;SDS011;12556;55.748;13.194;2023-06-22T05:48:40;8.60;;;4.20;;
11771;SDS011;12556;55.748;13.194;2023-06-22T05:51:07;8.73;;;4.07;;
11771;SDS011;12556;55.748;13.194;2023-06-22T05:53:35;4.73;;;3.93;;
11771;SDS011;12556;55.748;13.194;2023-06-22T05:56:02;7.50;;;4.20;;
11771;SDS011;12556;55.748;13.194;2023-06-22T05:58:29;4.97;;;3.87;;
11771;SDS011;12556;55.748;13.194;2023-06-22T06:00:57;6.80;;;3.77;;
11771;SDS011;12556;55.748;13.194;2023-06-22T06:03:25;5.87;;;4.03;;
11771;SDS011;12556;55.748;13.194;2023-06-22T06:05:53;7.45;;;3.67;;
11771;SDS011;12556;55.748;13.194;2023-06-22T06:08:20;5.90;;;4.30;;
11771;SDS011;12556;55.748;13.194;2023-06-22T06:10:47;5.97;;;3.87;;
11771;SDS011;12556;55.748;13.194;2023-06-22T06:13:14;5.60;;;4.38;;
11771;SDS011;12556;55.748;13.194;2023-06-22T06:15:41;6.13;;;3.97;;
11771;SDS011;12556;55.748;13.194;2023-06-22T06:18:09;7.93;;;4.20;;
11771;SDS011;12556;55.748;13.194;2023-06-22T06:20:36;5.80;;;4.27;;
11771;SDS011;12556;55.748;13.194;2023-06-22T06:23:03;5.40;;;3.50;;
11771;SDS011;12556;55.748;13.194;2023-06-22T06:25:30;6.53;;;4.10;;
11771;SDS011;12556;55.748;13.194;2023-06-22T06:27:57;6.70;;;3.55;;
11771;SDS011;12556;55.748;13.194;2023-06-22T06:30:24;8.98;;;4.00;;
11771;SDS011;12556;55.748;13.194;2023-06-22T06:32:51;4.70;;;3.17;;
11771;SDS011;12556;55.748;13.194;2023-06-22T06:35:19;7.75;;;3.80;;
11771;SDS011;12556;55.748;13.194;2023-06-22T06:37:47;7.47;;;3.50;;
11771;SDS011;12556;55.748;13.194;2023-06-22T06:40:15;5.07;;;3.25;;
11771;SDS011;12556;55.748;13.194;2023-06-22T06:42:43;4.38;;;3.20;;
11771;SDS011;12556;55.748;13.194;2023-06-22T06:45:11;7.03;;;3.53;;
11771;SDS011;12556;55.748;13.194;2023-06-22T06:47:39;5.13;;;3.33;;
11771;SDS011;12556;55.748;13.194;2023-06-22T06:50:06;7.47;;;3.70;;
11771;SDS011;12556;55.748;13.194;2023-06-22T06:52:35;3.83;;;3.33;;
11771;SDS011;12556;55.748;13.194;2023-06-22T06:55:02;5.28;;;3.58;;
11771;SDS011;12556;55.748;13.194;2023-06-22T06:57:33;3.85;;;3.25;;
11771;SDS011;12556;55.748;13.194;2023-06-22T07:00:00;5.40;;;3.35;;
11771;SDS011;12556;55.748;13.194;2023-06-22T07:02:35;8.10;;;3.67;;
11771;SDS011;12556;55.748;13.194;2023-06-22T07:05:02;6.13;;;3.63;;
11771;SDS011;12556;55.748;13.194;2023-06-22T07:07:30;6.13;;;3.97;;
11771;SDS011;12556;55.748;13.194;2023-06-22T07:09:58;6.65;;;3.55;;
11771;SDS011;12556;55.748;13.194;2023-06-22T07:12:25;5.03;;;3.35;;
11771;SDS011;12556;55.748;13.194;2023-06-22T07:14:52;4.40;;;3.58;;
11771;SDS011;12556;55.748;13.194;2023-06-22T07:17:19;5.10;;;3.47;;
11771;SDS011;12556;55.748;13.194;2023-06-22T07:19:46;10.35;;;3.80;;
11771;SDS011;12556;55.748;13.194;2023-06-22T07:22:13;4.65;;;3.10;;
11771;SDS011;12556;55.748;13.194;2023-06-22T07:24:40;5.85;;;3.53;;
11771;SDS011;12556;55.748;13.194;2023-06-22T07:27:08;4.03;;;2.90;;
11771;SDS011;12556;55.748;13.194;2023-06-22T07:29:37;5.05;;;3.40;;
11771;SDS011;12556;55.748;13.194;2023-06-22T07:32:05;5.68;;;3.60;;
11771;SDS011;12556;55.748;13.194;2023-06-22T07:34:33;5.78;;;3.60;;
11771;SDS011;12556;55.748;13.194;2023-06-22T07:37:00;7.13;;;3.92;;
11771;SDS011;12556;55.748;13.194;2023-06-22T07:39:27;6.10;;;3.30;;
11771;SDS011;12556;55.748;13.194;2023-06-22T07:41:54;5.75;;;3.50;;
11771;SDS011;12556;55.748;13.194;2023-06-22T07:44:23;4.07;;;3.17;;
11771;SDS011;12556;55.748;13.194;2023-06-22T07:46:50;6.00;;;3.50;;
11771;SDS011;12556;55.748;13.194;2023-06-22T07:49:17;8.57;;;3.30;;
11771;SDS011;12556;55.748;13.194;2023-06-22T07:51:44;4.57;;;3.47;;
11771;SDS011;12556;55.748;13.194;2023-06-22T07:54:11;5.95;;;3.40;;
11771;SDS011;12556;55.748;13.194;2023-06-22T07:56:37;6.20;;;3.60;;
11771;SDS011;12556;55.748;13.194;2023-06-22T07:59:04;5.95;;;3.58;;
11771;SDS011;12556;55.748;13.194;2023-06-22T08:01:33;3.70;;;3.15;;
11771;SDS011;12556;55.748;13.194;2023-06-22T08:04:00;4.53;;;3.13;;
11771;SDS011;12556;55.748;13.194;2023-06-22T08:06:28;4.75;;;3.72;;
11771;SDS011;12556;55.748;13.194;2023-06-22T08:08:56;5.28;;;3.63;;
11771;SDS011;12556;55.748;13.194;2023-06-22T08:11:24;6.03;;;3.40;;
11771;SDS011;12556;55.748;13.194;2023-06-22T08:13:51;5.25;;;3.35;;
11771;SDS011;12556;55.748;13.194;2023-06-22T08:16:18;3.67;;;2.92;;
11771;SDS011;12556;55.748;13.194;2023-06-22T08:18:46;4.80;;;3.30;;
11771;SDS011;12556;55.748;13.194;2023-06-22T08:21:13;5.45;;;3.35;;
11771;SDS011;12556;55.748;13.194;2023-06-22T08:23:40;7.45;;;3.33;;
11771;SDS011;12556;55.748;13.194;2023-06-22T08:26:07;5.60;;;3.78;;
11771;SDS011;12556;55.748;13.194;2023-06-22T08:28:34;5.20;;;3.38;;
11771;SDS011;12556;55.748;13.194;2023-06-22T08:31:02;3.42;;;2.80;;
11771;SDS011;12556;55.748;13.194;2023-06-22T08:33:29;4.90;;;3.05;;
11771;SDS011;12556;55.748;13.194;2023-06-22T08:35:57;5.38;;;3.08;;
11771;SDS011;12556;55.748;13.194;2023-06-22T08:38:24;5.20;;;2.97;;
11771;SDS011;12556;55.748;13.194;2023-06-22T08:40:51;7.43;;;3.50;;
11771;SDS011;12556;55.748;13.194;2023-06-22T08:43:18;4.88;;;3.30;;
11771;SDS011;12556;55.748;13.194;2023-06-22T08:45:45;4.10;;;3.28;;
11771;SDS011;12556;55.748;13.194;2023-06-22T08:48:12;5.57;;;3.40;;
11771;SDS011;12556;55.748;13.194;2023-06-22T08:50:39;3.60;;;3.30;;
11771;SDS011;12556;55.748;13.194;2023-06-22T08:53:07;6.40;;;3.03;;
11771;SDS011;12556;55.748;13.194;2023-06-22T08:55:34;4.80;;;2.65;;
11771;SDS011;12556;55.748;13.194;2023-06-22T08:58:01;4.53;;;2.90;;
11771;SDS011;12556;55.748;13.194;2023-06-22T09:00:28;4.68;;;3.22;;
11771;SDS011;12556;55.748;13.194;2023-06-22T09:02:58;5.63;;;2.85;;
11771;SDS011;12556;55.748;13.194;2023-06-22T09:05:25;3.88;;;2.78;;
11771;SDS011;12556;55.748;13.194;2023-06-22T09:07:52;5.38;;;2.75;;
11771;SDS011;12556;55.748;13.194;2023-06-22T09:10:21;4.05;;;2.58;;
11771;SDS011;12556;55.748;13.194;2023-06-22T09:12:48;3.30;;;3.00;;
11771;SDS011;12556;55.748;13.194;2023-06-22T09:15:15;3.65;;;2.78;;
11771;SDS011;12556;55.748;13.194;2023-06-22T09:17:42;3.03;;;2.80;;
11771;SDS011;12556;55.748;13.194;2023-06-22T09:20:11;3.20;;;2.83;;
11771;SDS011;12556;55.748;13.194;2023-06-22T09:22:38;4.18;;;2.97;;
11771;SDS011;12556;55.748;13.194;2023-06-22T09:25:05;3.35;;;2.80;;
11771;SDS011;12556;55.748;13.194;2023-06-22T09:27:34;9.93;;;2.80;;
11771;SDS011;12556;55.748;13.194;2023-06-22T09:30:01;5.88;;;3.35;;
11771;SDS011;12556;55.748;13.194;2023-06-22T09:32:28;2.65;;;2.42;;
11771;SDS011;12556;55.748;13.194;2023-06-22T09:34:55;3.80;;;3.40;;
11771;SDS011;12556;55.748;13.194;2023-06-22T09:37:22;6.20;;;3.13;;
11771;SDS011;12556;55.748;13.194;2023-06-22T09:39:49;3.13;;;2.83;;
11771;SDS011;12556;55.748;13.194;2023-06-22T09:42:16;5.03;;;3.55;;
11771;SDS011;12556;55.748;13.194;2023-06-22T09:44:44;3.97;;;3.30;;
11771;SDS011;12556;55.748;13.194;2023-06-22T09:47:11;5.13;;;3.03;;
11771;SDS011;12556;55.748;13.194;2023-06-22T09:49:38;3.55;;;3.03;;
11771;SDS011;12556;55.748;13.194;2023-06-22T09:52:05;3.30;;;2.97;;
11771;SDS011;12556;55.748;13.194;2023-06-22T09:54:32;4.30;;;3.03;;
11771;SDS011;12556;55.748;13.194;2023-06-22T09:56:59;3.17;;;2.88;;
11771;SDS011;12556;55.748;13.194;2023-06-22T09:59:26;3.35;;;2.85;;
11771;SDS011;12556;55.748;13.194;2023-06-22T10:01:54;4.18;;;2.92;;
11771;SDS011;12556;55.748;13.194;2023-06-22T10:04:21;3.63;;;2.67;;
11771;SDS011;12556;55.748;13.194;2023-06-22T10:06:49;2.90;;;2.70;;
11771;SDS011;12556;55.748;13.194;2023-06-22T10:09:16;3.25;;;2.80;;
11771;SDS011;12556;55.748;13.194;2023-06-22T10:11:43;4.32;;;3.05;;
11771;SDS011;12556;55.748;13.194;2023-06-22T10:14:10;2.60;;;2.40;;
11771;SDS011;12556;55.748;13.194;2023-06-22T10:16:37;3.83;;;3.10;;
11771;SDS011;12556;55.748;13.194;2023-06-22T10:19:07;4.93;;;2.83;;
11771;SDS011;12556;55.748;13.194;2023-06-22T10:21:34;2.95;;;2.75;;
11771;SDS011;12556;55.748;13.194;2023-06-22T10:24:01;4.40;;;3.05;;
11771;SDS011;12556;55.748;13.194;2023-06-22T10:26:31;3.72;;;2.50;;
11771;SDS011;12556;55.748;13.194;2023-06-22T10:28:58;3.15;;;2.47;;
11771;SDS011;12556;55.748;13.194;2023-06-22T10:31:25;2.95;;;2.55;;
11771;SDS011;12556;55.748;13.194;2023-06-22T10:33:52;5.18;;;2.45;;
11771;SDS011;12556;55.748;13.194;2023-06-22T10:36:21;3.70;;;2.63;;
11771;SDS011;12556;55.748;13.194;2023-06-22T10:38:48;3.15;;;2.85;;
11771;SDS011;12556;55.748;13.194;2023-06-22T10:41:15;3.78;;;2.95;;
11771;SDS011;12556;55.748;13.194;2023-06-22T10:43:42;2.47;;;2.28;;
11771;SDS011;12556;55.748;13.194;2023-06-22T10:46:09;2.97;;;2.58;;
11771;SDS011;12556;55.748;13.194;2023-06-22T10:48:36;3.65;;;2.67;;
11771;SDS011;12556;55.748;13.194;2023-06-22T10:51:03;3.22;;;2.42;;
11771;SDS011;12556;55.748;13.194;2023-06-22T10:53:31;3.45;;;2.20;;
11771;SDS011;12556;55.748;13.194;2023-06-22T10:55:58;2.63;;;2.42;;
11771;SDS011;12556;55.748;13.194;2023-06-22T10:58:25;2.40;;;2.20;;
11771;SDS011;12556;55.748;13.194;2023-06-22T11:00:52;3.25;;;2.30;;
11771;SDS011;12556;55.748;13.194;2023-06-22T11:03:19;2.47;;;2.28;;
11771;SDS011;12556;55.748;13.194;2023-06-22T11:05:45;3.15;;;2.53;;
11771;SDS011;12556;55.748;13.194;2023-06-22T11:08:13;4.38;;;2.90;;
11771;SDS011;12556;55.748;13.194;2023-06-22T11:10:41;2.72;;;2.47;;
11771;SDS011;12556;55.748;13.194;2023-06-22T11:13:08;2.15;;;1.95;;
11771;SDS011;12556;55.748;13.194;2023-06-22T11:15:35;3.13;;;2.10;;
11771;SDS011;12556;55.748;13.194;2023-06-22T11:18:02;2.97;;;2.20;;
11771;SDS011;12556;55.748;13.194;2023-06-22T11:20:32;3.55;;;2.45;;
11771;SDS011;12556;55.748;13.194;2023-06-22T11:23:03;2.50;;;2.30;;
11771;SDS011;12556;55.748;13.194;2023-06-22T11:25:30;2.20;;;1.80;;
11771;SDS011;12556;55.748;13.194;2023-06-22T11:27:58;2.30;;;2.10;;
11771;SDS011;12556;55.748;13.194;2023-06-22T11:30:25;2.47;;;2.03;;
11771;SDS011;12556;55.748;13.194;2023-06-22T11:32:52;3.08;;;2.00;;
11771;SDS011;12556;55.748;13.194;2023-06-22T11:35:19;2.72;;;2.28;;
11771;SDS011;12556;55.748;13.194;2023-06-22T11:37:46;2.10;;;2.00;;
11771;SDS011;12556;55.748;13.194;2023-06-22T11:40:13;2.70;;;2.50;;
11771;SDS011;12556;55.748;13.194;2023-06-22T11:42:40;3.95;;;2.50;;
11771;SDS011;12556;55.748;13.194;2023-06-22T11:45:09;3.03;;;2.10;;
11771;SDS011;12556;55.748;13.194;2023-06-22T11:47:36;2.20;;;1.85;;
11771;SDS011;12556;55.748;13.194;2023-06-22T11:50:04;3.00;;;1.90;;
11771;SDS011;12556;55.748;13.194;2023-06-22T11:52:33;2.10;;;2.00;;
11771;SDS011;12556;55.748;13.194;2023-06-22T11:55:00;3.63;;;2.72;;
11771;SDS011;12556;55.748;13.194;2023-06-22T11:57:28;2.03;;;1.90;;
11771;SDS011;12556;55.748;13.194;2023-06-22T11:59:55;3.50;;;1.63;;
11771;SDS011;12556;55.748;13.194;2023-06-22T12:02:24;4.97;;;2.25;;
11771;SDS011;12556;55.748;13.194;2023-06-22T12:04:50;2.15;;;1.85;;
11771;SDS011;12556;55.748;13.194;2023-06-22T12:07:19;2.63;;;1.98;;
11771;SDS011;12556;55.748;13.194;2023-06-22T12:09:46;2.63;;;2.13;;
11771;SDS011;12556;55.748;13.194;2023-06-22T12:12:13;1.90;;;1.58;;
11771;SDS011;12556;55.748;13.194;2023-06-22T12:14:40;3.13;;;2.20;;
11771;SDS011;12556;55.748;13.194;2023-06-22T12:17:07;2.28;;;2.10;;
11771;SDS011;12556;55.748;13.194;2023-06-22T12:19:35;3.10;;;1.77;;
11771;SDS011;12556;55.748;13.194;2023-06-22T12:22:02;2.40;;;2.20;;
11771;SDS011;12556;55.748;13.194;2023-06-22T12:24:29;2.10;;;1.90;;
11771;SDS011;12556;55.748;13.194;2023-06-22T12:26:56;3.97;;;1.98;;
11771;SDS011;12556;55.748;13.194;2023-06-22T12:29:23;2.95;;;1.90;;
11771;SDS011;12556;55.748;13.194;2023-06-22T12:31:50;3.65;;;2.13;;
11771;SDS011;12556;55.748;13.194;2023-06-22T12:34:17;2.85;;;2.28;;
11771;SDS011;12556;55.748;13.194;2023-06-22T12:36:45;2.35;;;2.15;;
11771;SDS011;12556;55.748;13.194;2023-06-22T12:39:13;3.35;;;2.28;;
11771;SDS011;12556;55.748;13.194;2023-06-22T12:41:40;2.17;;;2.00;;
11771;SDS011;12556;55.748;13.194;2023-06-22T12:44:06;1.88;;;1.77;;
11771;SDS011;12556;55.748;13.194;2023-06-22T12:46:33;3.88;;;2.60;;
11771;SDS011;12556;55.748;13.194;2023-06-22T12:49:02;2.20;;;1.80;;
11771;SDS011;12556;55.748;13.194;2023-06-22T12:51:29;3.80;;;2.25;;
11771;SDS011;12556;55.748;13.194;2023-06-22T12:53:58;3.15;;;2.50;;
11771;SDS011;12556;55.748;13.194;2023-06-22T12:56:25;3.22;;;2.47;;
11771;SDS011;12556;55.748;13.194;2023-06-22T12:58:52;3.47;;;2.00;;
11771;SDS011;12556;55.748;13.194;2023-06-22T13:01:18;2.33;;;1.92;;
11771;SDS011;12556;55.748;13.194;2023-06-22T13:03:45;2.05;;;1.90;;
11771;SDS011;12556;55.748;13.194;2023-06-22T13:06:12;2.35;;;1.90;;
11771;SDS011;12556;55.748;13.194;2023-06-22T13:08:39;2.42;;;1.95;;
11771;SDS011;12556;55.748;13.194;2023-06-22T13:11:08;1.80;;;1.70;;
11771;SDS011;12556;55.748;13.194;2023-06-22T13:13:34;1.70;;;1.60;;
11771;SDS011;12556;55.748;13.194;2023-06-22T13:16:01;1.95;;;1.85;;
11771;SDS011;12556;55.748;13.194;2023-06-22T13:18:28;2.05;;;1.85;;
11771;SDS011;12556;55.748;13.194;2023-06-22T13:20:55;2.20;;;2.00;;
11771;SDS011;12556;55.748;13.194;2023-06-22T13:23:23;2.03;;;1.85;;
11771;SDS011;12556;55.748;13.194;2023-06-22T13:25:50;2.60;;;2.10;;
11771;SDS011;12556;55.748;13.194;2023-06-22T13:28:18;2.22;;;2.03;;
11771;SDS011;12556;55.748;13.194;2023-06-22T13:30:46;2.10;;;1.90;;
11771;SDS011;12556;55.748;13.194;2023-06-22T13:33:13;2.13;;;1.92;;
11771;SDS011;12556;55.748;13.194;2023-06-22T13:35:40;2.13;;;1.92;;
11771;SDS011;12556;55.748;13.194;2023-06-22T13:38:08;2.38;;;2.10;;
11771;SDS011;12556;55.748;13.194;2023-06-22T13:40:36;2.28;;;2.08;;
11771;SDS011;12556;55.748;13.194;2023-06-22T13:43:03;2.70;;;2.00;;
11771;SDS011;12556;55.748;13.194;2023-06-22T13:45:32;3.08;;;1.98;;
11771;SDS011;12556;55.748;13.194;2023-06-22T13:47:59;4.25;;;2.13;;
11771;SDS011;12556;55.748;13.194;2023-06-22T13:50:26;2.65;;;1.70;;
11771;SDS011;12556;55.748;13.194;2023-06-22T13:52:54;2.13;;;1.90;;
11771;SDS011;12556;55.748;13.194;2023-06-22T13:55:21;3.47;;;2.05;;
11771;SDS011;12556;55.748;13.194;2023-06-22T13:57:49;1.92;;;1.83;;
11771;SDS011;12556;55.748;13.194;2023-06-22T14:00:16;2.50;;;2.30;;
11771;SDS011;12556;55.748;13.194;2023-06-22T14:02:45;1.90;;;1.80;;
11771;SDS011;12556;55.748;13.194;2023-06-22T14:05:12;3.90;;;2.35;;
11771;SDS011;12556;55.748;13.194;2023-06-22T14:07:39;2.33;;;2.17;;
11771;SDS011;12556;55.748;13.194;2023-06-22T14:10:06;2.83;;;2.45;;
11771;SDS011;12556;55.748;13.194;2023-06-22T14:12:33;2.58;;;1.80;;
11771;SDS011;12556;55.748;13.194;2023-06-22T14:15:00;4.03;;;2.72;;
11771;SDS011;12556;55.748;13.194;2023-06-22T14:17:27;5.30;;;2.20;;
11771;SDS011;12556;55.748;13.194;2023-06-22T14:19:55;2.50;;;2.30;;
11771;SDS011;12556;55.748;13.194;2023-06-22T14:22:22;2.42;;;2.08;;
11771;SDS011;12556;55.748;13.194;2023-06-22T14:24:49;3.53;;;2.53;;
11771;SDS011;12556;55.748;13.194;2023-06-22T14:27:16;3.65;;;2.30;;
11771;SDS011;12556;55.748;13.194;2023-06-22T14:29:43;3.38;;;2.47;;
11771;SDS011;12556;55.748;13.194;2023-06-22T14:32:10;6.25;;;2.25;;
11771;SDS011;12556;55.748;13.194;2023-06-22T14:34:36;2.85;;;1.90;;
11771;SDS011;12556;55.748;13.194;2023-06-22T14:37:06;2.35;;;2.13;;